This is the latest recevied weather packets stored in our database for station/object KA1JKB. If no packets are shown the sender has not sent any weather packets the latest 10 day(s).
| Time | Temp. | Humidity | Pressure | Rain* | Wind** | Luminosity | Snow |
|---|---|---|---|---|---|---|---|
| 1777421548 | 13.89° C | 79% | 1010.1 hPa | 0 mm | - | 14 W/m² | - |
| 1777420637 | 14.44° C | 77% | 1010 hPa | 0 mm | - | 25 W/m² | - |
| 1777420334 | 15° C | 76% | 1009.6 hPa | 0 mm | - | 29 W/m² | - |
| 1777414874 | 16.11° C | 73% | 1009.9 hPa | 0 mm | - | 293 W/m² | - |
| 1777414573 | 16.67° C | 73% | 1009.7 hPa | 0 mm | - | 136 W/m² | - |
| 1777413355 | 15.56° C | 76% | 1009.5 hPa | 0 mm | - | 152 W/m² | - |
| 1777412143 | 16.67° C | 74% | 1009.3 hPa | 0 mm | - | 459 W/m² | - |
| 1777411233 | 15.56° C | 78% | 1009.6 hPa | 0 mm | - | 644 W/m² | - |
| 1777410632 | 15.56° C | 75% | 1009.6 hPa | 0 mm | - | 555 W/m² | - |
| 1777410327 | 16.11° C | 76% | 1009.5 hPa | 0 mm | - | 564 W/m² | - |
| 1777409716 | 15° C | 77% | 1009.7 hPa | 0 mm | - | 691 W/m² | - |
| 1777408501 | 15° C | 78% | 1010 hPa | 0 mm | - | 234 W/m² | - |
| 1777408195 | 15.56° C | 77% | 1010 hPa | 0 mm | - | 404 W/m² | - |
| 1777407891 | 15.56° C | 79% | 1009.8 hPa | 0 mm | - | 723 W/m² | - |
| 1777406683 | 15° C | 79% | 1009.8 hPa | 0 mm | - | 766 W/m² | - |
| 1777406379 | 15° C | 78% | 1009.8 hPa | 0 mm | - | 715 W/m² | - |
| 1777406078 | 15.56° C | 80% | 1009.9 hPa | 0 mm | - | 190 W/m² | - |
| 1777404866 | 15.56° C | 80% | 1009.7 hPa | 0 mm | - | 810 W/m² | - |
| 1777404564 | 15.56° C | 79% | 1009.9 hPa | 0 mm | - | 525 W/m² | - |
| 1777404260 | 15.56° C | 82% | 1010 hPa | 0 mm | - | 585 W/m² | - |
| 1777403956 | 15° C | 83% | 1009.8 hPa | 0 mm | - | 449 W/m² | - |
| 1777403349 | 14.44° C | 85% | 1009.7 hPa | 0 mm | - | 354 W/m² | - |
| 1777402134 | 13.89° C | 83% | 1009.6 hPa | 0 mm | - | 435 W/m² | - |
| 1777400920 | 13.33° C | 84% | 1009.6 hPa | 0 mm | - | 446 W/m² | - |
| 1777397584 | 12.78° C | 89% | 1009.3 hPa | 0 mm | - | 213 W/m² | - |
* Rain latest hour (hover to see other rain measurements)
** Current wind speed in m/s (hover to see current wind gust speed)